Meteo Giornale » Osservazioni meteo Stati Uniti (USA) » Greenwood
ore: 17:56 - Osservazioni Meteo Greenwood
Lat. 34° 14' N Lon. 82° 9' W Alt. 192 metri s.l.m.
33 °C
Sereno
Temp. 24 Ore
21 °C
34 °C
Nord/Nord-Est
9.3 Km/h
Dew point 19 °C
Umidità 43 %
Visibilità 10 Km
Il sole sorge alle ore 07:01
Il sole tramonta alle ore 19:56
| Data e Ora | Cielo e Fenomeni | T °C | DP °C | Um. % | Pres. hPa | Vis. km | Vento km/h | |
|---|---|---|---|---|---|---|---|---|
| Oggi h: 17:56 | Sereno | 33 | 19 | 43 | 1019 | 10 | N/NE 9.3 | |
| Oggi h: 16:56 | Sereno | 34 | 20 | 43 | 1019 | 10 | NE 9.3 | |
| Oggi h: 15:56 | Sereno | 33 | 20 | 46 | 1019 | 10 | N 9.3 | |
| Oggi h: 14:56 | Nuvoloso | 32 | 20 | 49 | 1020 | 10 | N 5.5 | |
| Oggi h: 13:56 | Sereno | 33 | 21 | 49 | 1021 | 10 | N 5.5 | |
| Oggi h: 12:56 | Poco Nuvoloso | 31 | 21 | 55 | 1021 | 10 | NE 9.3 | |
| Oggi h: 11:56 | Nuvoloso | 30 | 21 | 58 | 1022 | 10 | N 7.4 | |
| Oggi h: 11:39 | Molto Nuvoloso | 29 | 21 | 62 | 1022 | 10 | N 0 | |
| Oggi h: 11:20 | Molto Nuvoloso | 29 | 22 | 66 | 1022 | 10 | N 7.4 | |
| Oggi h: 10:56 | Nuvoloso | 29 | 22 | 66 | 1022 | 10 | N 0 | |
| Oggi h: 09:56 | Sereno | 27 | 23 | 78 | 1022 | 10 | N/NO 9.3 | |
| Oggi h: 08:56 | Sereno | 24 | 23 | 94 | 1021 | 10 | N 0 | |
| Oggi h: 07:56 | Foschia | 21 | 21 | 100 | 1021 | 10 | N 0 | |
| Oggi h: 07:42 | Foschia | 21 | 21 | 100 | 1021 | 5 | N 0 | |
| Oggi h: 07:31 | Foschia | 21 | 21 | 100 | 1021 | 5 | N 0 | |
| Oggi h: 07:13 | Foschia | 21 | 21 | 100 | 1021 | 10 | N 0 | |
| Oggi h: 06:56 | Foschia | 21 | 21 | 100 | 1021 | 8 | N 0 | |
| Oggi h: 05:56 | Foschia | 21 | 21 | 100 | 1021 | 6 | N 0 | |
| Oggi h: 05:10 | Foschia | 21 | 21 | 100 | 1021 | 10 | N 0 | |
| Oggi h: 04:56 | Poco Nuvoloso | 21 | 21 | 100 | 1021 | 13 | N 0 | |
| Oggi h: 03:56 | Sereno | 21 | 21 | 100 | 1020 | 14 | N 0 | |
| Oggi h: 02:56 | Sereno | 22 | 21 | 94 | 1020 | 10 | N 0 | |
| Oggi h: 01:56 | Sereno | 22 | 22 | 100 | 1021 | 10 | N 0 | |
| Oggi h: 00:56 | Sereno | 23 | 22 | 94 | 1021 | 10 | N 0 | |
| Ieri h: 23:56 | Sereno | 23 | 22 | 94 | 1021 | 10 | N 0 | |
| Ieri h: 22:56 | Sereno | 24 | 23 | 94 | 1021 | 10 | N 0 | |
| Ieri h: 21:56 | Sereno | 24 | 22 | 88 | 1021 | 10 | N 0 | |
| Ieri h: 20:56 | Sereno | 27 | 22 | 74 | 1020 | 10 | N 0 | |
| Ieri h: 19:56 | Poco Nuvoloso | 28 | 22 | 69 | 1020 | 10 | N 5.5 | |
| Ieri h: 18:56 | Poco Nuvoloso | 31 | 22 | 58 | 1020 | 10 | SE 13 | |



